Terminal Aerodrome Forecast
Issued by NWS

Home | Current Version | Previous Version | Text Only | Print | Product List | Glossary On
Versions: 1 2 3 4 5 6 7 8 9 10 11 12 13 14 15 16
613
FTAK31 PAJN 300520
TAFAJN
TAF
PAJN 300520Z 3006/3106 08006KT P6SM VCSH FEW020 OVC040
     FM300900 VRB03KT P6SM BKN025 OVC035
     FM301800 25007KT P6SM SCT025 BKN050=

USA.gov is the U.S. government's official web portal to all federal, state and local government web resources and services.